Time;durP1;ratioP1;P1;durP2;ratioP2;P2;SDS_P1;SDS_P2;PMS_P1;PMS_P2;Temp;Humidity;BMP_temperature;BMP_pressure;BME280_temperature;BME280_humidity;BME280_pressure;Samples;Min_cycle;Max_cycle;Signal;HPM_P1;HPM_P2
2022/08/30 00:03:09;;;;;;;8.00;4.37;;;18.10;99.90;;;;;;5100576;28;20647;-74
2022/08/30 00:05:35;;;;;;;7.37;4.10;;;17.90;99.90;;;;;;5100826;28;20469;-76
2022/08/30 00:08:01;;;;;;;5.13;3.73;;;17.90;99.90;;;;;;5099906;28;20223;-71
2022/08/30 00:10:28;;;;;;;5.97;3.37;;;17.10;99.90;;;;;;5099834;28;20202;-71
2022/08/30 00:12:55;;;;;;;8.07;4.13;;;18.50;99.90;;;;;;5099789;28;20616;-71
2022/08/30 00:15:22;;;;;;;7.00;4.03;;;18.50;99.90;;;;;;5099898;28;20219;-74
2022/08/30 00:17:48;;;;;;;5.30;3.93;;;18.50;99.90;;;;;;5099563;28;20249;-73
2022/08/30 00:20:19;;;;;;;7.43;3.97;;;18.50;99.90;;;;;;5099893;28;20476;-73
2022/08/30 00:22:45;;;;;;;5.67;4.23;;;18.40;99.90;;;;;;5099589;28;20193;-72
2022/08/30 00:25:11;;;;;;;4.10;3.70;;;18.40;99.90;;;;;;5099576;28;20171;-70
2022/08/30 00:27:37;;;;;;;8.60;3.80;;;18.40;99.90;;;;;;5098390;28;20659;-72
2022/08/30 00:30:05;;;;;;;7.03;4.07;;;18.30;99.90;;;;;;5099452;28;20229;-72
2022/08/30 00:32:30;;;;;;;6.73;5.23;;;18.30;99.90;;;;;;5099175;28;20170;-73
2022/08/30 00:34:56;;;;;;;5.57;4.47;;;18.30;99.90;;;;;;5099484;28;20170;-72
2022/08/30 00:37:22;;;;;;;7.50;5.10;;;18.30;99.90;;;;;;5099289;28;20163;-72
2022/08/30 00:39:48;;;;;;;7.30;3.93;;;18.30;99.90;;;;;;5099352;28;20171;-72
2022/08/30 00:42:15;;;;;;;8.77;4.10;;;18.40;99.90;;;;;;5099320;28;20174;-72
2022/08/30 00:44:41;;;;;;;5.57;4.77;;;18.30;99.90;;;;;;5099229;28;20520;-73
2022/08/30 00:47:07;;;;;;;4.90;4.23;;;18.30;99.90;;;;;;5098911;28;20254;-70
2022/08/30 00:49:36;;;;;;;13.30;4.97;;;18.30;99.90;;;;;;5097821;28;20203;-70
2022/08/30 00:52:04;;;;;;;7.53;5.87;;;18.30;99.90;;;;;;5098988;28;20209;-71
2022/08/30 00:54:30;;;;;;;7.93;5.17;;;18.30;99.90;;;;;;5099075;28;20155;-71
2022/08/30 00:56:56;;;;;;;6.33;4.10;;;18.20;99.90;;;;;;5099060;28;20174;-74
2022/08/30 00:59:24;;;;;;;8.97;5.20;;;18.20;99.90;;;;;;5098906;28;20494;-73
2022/08/30 01:01:50;;;;;;;15.50;5.40;;;18.20;99.90;;;;;;5098754;28;20232;-72
2022/08/30 01:04:20;;;;;;;9.33;4.43;;;18.20;99.90;;;;;;5098860;28;20493;-75
2022/08/30 01:06:46;;;;;;;7.40;4.90;;;18.10;99.90;;;;;;5098213;28;20197;-72
2022/08/30 01:09:13;;;;;;;9.23;5.53;;;17.90;99.90;;;;;;5098568;28;20262;-74
2022/08/30 01:11:41;;;;;;;9.57;5.73;;;17.80;99.90;;;;;;5098734;28;20170;-71
2022/08/30 01:14:10;;;;;;;5.63;5.13;;;17.90;99.90;;;;;;5098631;28;20159;-72
2022/08/30 01:16:38;;;;;;;8.73;4.63;;;17.90;99.90;;;;;;5098396;28;20159;-71
2022/08/30 01:19:08;;;;;;;8.43;5.90;;;17.90;99.90;;;;;;5098435;28;20164;-73
2022/08/30 01:21:48;;;;;;;10.67;6.07;;;17.80;99.90;;;;;;5098452;28;20581;-72
2022/08/30 01:24:15;;;;;;;6.97;4.40;;;17.90;99.90;;;;;;5098295;28;20289;-73
2022/08/30 01:26:41;;;;;;;8.47;5.53;;;17.80;99.90;;;;;;5098443;28;20167;-73
2022/08/30 01:29:12;;;;;;;6.30;4.80;;;17.80;99.90;;;;;;5097927;28;20217;-72
2022/08/30 01:31:38;;;;;;;5.33;4.90;;;17.70;99.90;;;;;;5098292;28;20200;-70
2022/08/30 01:34:06;;;;;;;8.33;4.93;;;17.80;99.90;;;;;;5098201;28;20171;-71
2022/08/30 01:36:33;;;;;;;5.27;4.37;;;17.70;99.90;;;;;;5097201;28;20167;-71
2022/08/30 01:38:58;;;;;;;6.63;6.00;;;17.70;99.90;;;;;;5097992;28;20170;-72
2022/08/30 01:41:27;;;;;;;15.77;5.70;;;18.60;99.90;;;;;;5097219;28;20210;-72
2022/08/30 01:43:55;;;;;;;9.53;5.43;;;17.50;99.90;;;;;;5097816;28;20212;-72
2022/08/30 01:46:25;;;;;;;4.90;4.40;;;17.40;99.90;;;;;;5098023;28;20601;-72
2022/08/30 01:48:53;;;;;;;7.83;6.10;;;15.70;99.90;;;;;;5097698;28;20174;-70
2022/08/30 01:51:19;;;;;;;11.37;5.47;;;18.50;99.90;;;;;;5097873;28;20162;-72
2022/08/30 01:53:45;;;;;;;6.13;5.53;;;18.50;99.90;;;;;;5098049;28;20526;-71
2022/08/30 01:56:12;;;;;;;13.03;6.13;;;18.40;99.90;;;;;;5097702;28;20258;-71
2022/08/30 01:58:39;;;;;;;11.37;5.63;;;18.50;99.90;;;;;;5097444;28;20237;-71
2022/08/30 02:01:11;;;;;;;10.30;5.47;;;18.40;99.90;;;;;;5097216;28;20222;-72
2022/08/30 02:03:38;;;;;;;10.33;5.13;;;18.30;99.90;;;;;;5097480;28;20183;-71
2022/08/30 02:06:07;;;;;;;9.03;6.27;;;18.20;99.90;;;;;;5097200;28;20470;-72
2022/08/30 02:08:33;;;;;;;10.00;4.97;;;18.20;99.90;;;;;;5096287;28;20178;-72
2022/08/30 02:10:59;;;;;;;13.27;7.13;;;18.20;99.90;;;;;;5097385;28;20543;-73
2022/08/30 02:13:26;;;;;;;17.27;6.80;;;18.10;99.90;;;;;;5097226;28;20162;-71
2022/08/30 02:15:53;;;;;;;6.07;5.40;;;18.10;99.90;;;;;;5097492;28;20189;-72
2022/08/30 02:18:19;;;;;;;8.10;5.90;;;18.00;99.90;;;;;;5096277;28;20159;-74
2022/08/30 02:20:45;;;;;;;12.40;7.70;;;17.80;99.90;;;;;;5097252;28;20262;-72
2022/08/30 02:23:11;;;;;;;10.10;6.43;;;17.80;99.90;;;;;;5097330;28;20254;-71
2022/08/30 02:25:37;;;;;;;10.13;6.60;;;17.80;99.90;;;;;;5097173;28;20589;-72
2022/08/30 02:28:04;;;;;;;7.23;6.53;;;17.70;99.90;;;;;;5096916;28;20175;-73
2022/08/30 02:30:30;;;;;;;10.23;5.90;;;17.60;99.90;;;;;;5096990;28;20273;-72
2022/08/30 02:32:56;;;;;;;8.90;5.03;;;17.60;99.90;;;;;;5097179;28;20769;-71
2022/08/30 02:35:22;;;;;;;12.33;7.83;;;17.50;99.90;;;;;;5097218;28;20155;-73
2022/08/30 02:37:48;;;;;;;8.93;5.97;;;17.40;99.90;;;;;;5097044;28;20228;-72
2022/08/30 02:40:14;;;;;;;12.53;6.57;;;17.40;99.90;;;;;;5096860;28;20224;-71
2022/08/30 02:42:40;;;;;;;12.17;5.53;;;17.40;99.90;;;;;;5096744;28;20171;-72
2022/08/30 02:45:07;;;;;;;9.53;6.70;;;17.40;99.90;;;;;;5095980;28;20253;-76
2022/08/30 02:47:33;;;;;;;7.63;5.60;;;17.40;99.90;;;;;;5097029;28;20170;-74
2022/08/30 02:50:00;;;;;;;7.53;6.40;;;17.40;99.90;;;;;;5096680;28;20202;-74
2022/08/30 02:52:26;;;;;;;7.63;5.80;;;17.30;99.90;;;;;;5096621;28;20162;-74
2022/08/30 02:54:53;;;;;;;11.30;6.00;;;17.00;99.90;;;;;;5096831;28;20174;-71
2022/08/30 02:57:19;;;;;;;13.43;5.83;;;15.90;99.90;;;;;;5096440;28;20177;-73
2022/08/30 02:59:46;;;;;;;12.00;6.73;;;13.70;99.90;;;;;;5096606;28;20589;-73
2022/08/30 03:02:12;;;;;;;7.33;5.50;;;17.30;99.90;;;;;;5096252;28;20262;-74
2022/08/30 03:04:38;;;;;;;7.23;5.47;;;17.30;99.90;;;;;;5096697;28;20166;-71
2022/08/30 03:07:08;;;;;;;8.70;6.20;;;17.30;99.90;;;;;;5096564;28;20177;-72
2022/08/30 03:09:34;;;;;;;13.83;6.63;;;17.20;99.90;;;;;;5096445;28;20182;-73
2022/08/30 03:12:00;;;;;;;8.13;6.33;;;17.20;99.90;;;;;;5096058;28;20195;-72
2022/08/30 03:14:26;;;;;;;9.53;6.23;;;17.20;99.90;;;;;;5096338;28;20174;-73
2022/08/30 03:16:53;;;;;;;11.07;6.30;;;17.10;99.90;;;;;;5096320;28;20299;-73
2022/08/30 03:19:19;;;;;;;7.93;6.13;;;17.20;99.90;;;;;;5096268;28;20588;-71
2022/08/30 03:21:45;;;;;;;7.83;6.57;;;17.10;99.90;;;;;;5096291;28;20178;-73
2022/08/30 03:24:12;;;;;;;9.57;6.77;;;17.10;99.90;;;;;;5096129;28;20175;-72
2022/08/30 03:26:38;;;;;;;6.83;6.13;;;17.10;99.90;;;;;;5095834;28;20574;-71
2022/08/30 03:29:04;;;;;;;7.00;6.40;;;17.10;99.90;;;;;;5096090;28;20184;-72
2022/08/30 03:31:30;;;;;;;9.37;5.30;;;17.20;99.90;;;;;;5096039;28;20163;-73
2022/08/30 03:33:55;;;;;;;7.93;6.23;;;17.20;99.90;;;;;;5095020;28;20171;-72
2022/08/30 03:36:21;;;;;;;7.90;6.77;;;17.20;99.90;;;;;;5096007;28;20273;-72
2022/08/30 03:38:47;;;;;;;9.63;6.77;;;17.20;99.90;;;;;;5096106;28;20162;-71
2022/08/30 03:41:13;;;;;;;6.70;6.10;;;17.30;99.90;;;;;;5095650;28;20562;-74
2022/08/30 03:43:38;;;;;;;6.10;5.60;;;17.20;99.90;;;;;;5096022;28;20159;-72
2022/08/30 03:46:05;;;;;;;9.17;6.07;;;17.20;99.90;;;;;;5096053;28;20178;-72
2022/08/30 03:48:30;;;;;;;8.80;6.63;;;17.20;99.90;;;;;;5095850;28;20585;-72
2022/08/30 03:50:56;;;;;;;8.63;7.13;;;17.20;99.90;;;;;;5095713;28;20206;-73
2022/08/30 03:53:22;;;;;;;7.07;5.50;;;17.20;99.90;;;;;;5095823;28;20549;-74
2022/08/30 03:55:48;;;;;;;10.50;6.67;;;17.20;99.90;;;;;;5095675;28;20514;-72
2022/08/30 03:58:14;;;;;;;6.07;5.47;;;17.10;99.90;;;;;;5095684;28;20171;-72
2022/08/30 04:00:40;;;;;;;15.27;7.93;;;17.20;99.90;;;;;;5095449;28;20551;-72
2022/08/30 04:03:07;;;;;;;6.73;5.90;;;17.10;99.90;;;;;;5094863;28;20202;-73
2022/08/30 04:05:33;;;;;;;10.53;7.57;;;17.10;99.90;;;;;;5095740;28;20216;-73
2022/08/30 04:07:59;;;;;;;14.40;6.87;;;17.10;99.90;;;;;;5095752;28;20175;-72
2022/08/30 04:10:25;;;;;;;14.53;8.07;;;17.00;99.90;;;;;;5095325;28;20202;-71
2022/08/30 04:12:51;;;;;;;7.33;6.43;;;17.10;99.90;;;;;;5095693;28;20190;-71
2022/08/30 04:15:18;;;;;;;9.63;6.20;;;17.10;99.90;;;;;;5095668;28;20526;-72
2022/08/30 04:17:45;;;;;;;9.40;6.57;;;17.00;99.90;;;;;;5095580;28;20173;-73
2022/08/30 04:20:11;;;;;;;12.80;7.63;;;17.00;99.90;;;;;;5095601;28;20178;-72
2022/08/30 04:22:37;;;;;;;9.53;6.77;;;17.00;99.90;;;;;;5095506;28;20175;-72
2022/08/30 04:25:03;;;;;;;8.43;6.17;;;16.90;99.90;;;;;;5095493;28;20182;-74
2022/08/30 04:27:29;;;;;;;15.77;8.03;;;16.90;99.90;;;;;;5094333;28;20562;-73
2022/08/30 04:29:55;;;;;;;8.43;6.53;;;16.80;99.90;;;;;;5095733;28;20213;-76
2022/08/30 04:32:21;;;;;;;11.90;7.53;;;16.80;99.90;;;;;;5095503;28;20167;-73
2022/08/30 04:34:47;;;;;;;8.37;7.50;;;16.70;99.90;;;;;;5095728;28;20578;-73
2022/08/30 04:37:13;;;;;;;10.33;8.27;;;16.60;99.90;;;;;;5095719;28;20167;-71
2022/08/30 04:39:39;;;;;;;10.67;6.70;;;16.30;99.90;;;;;;5095074;28;20162;-78
2022/08/30 04:42:05;;;;;;;8.03;7.03;;;16.00;99.90;;;;;;5098186;28;20242;-78
2022/08/30 04:44:31;;;;;;;10.87;7.63;;;15.30;99.90;;;;;;5099125;28;20191;-74
2022/08/30 04:46:57;;;;;;;9.80;7.63;;;17.10;99.90;;;;;;5099305;28;20174;-72
2022/08/30 04:49:23;;;;;;;9.10;8.30;;;17.00;99.90;;;;;;5098866;28;20199;-72
2022/08/30 04:51:49;;;;;;;12.93;7.20;;;17.10;99.90;;;;;;5097858;28;20250;-74
2022/08/30 04:54:15;;;;;;;8.17;7.40;;;17.00;99.90;;;;;;5098889;28;20173;-72
2022/08/30 04:56:42;;;;;;;7.60;6.83;;;17.00;99.90;;;;;;5099155;28;20177;-72
2022/08/30 04:59:08;;;;;;;10.57;7.17;;;16.90;99.90;;;;;;5098636;28;20202;-71
2022/08/30 05:01:34;;;;;;;8.70;7.80;;;16.90;99.90;;;;;;5098927;28;20202;-72
2022/08/30 05:04:00;;;;;;;8.93;8.03;;;16.90;99.90;;;;;;5098763;28;20165;-72
2022/08/30 05:06:29;;;;;;;15.37;9.13;;;17.00;99.90;;;;;;5098596;28;20175;-72
2022/08/30 05:08:55;;;;;;;11.10;8.07;;;17.00;99.90;;;;;;5098641;28;20173;-75
2022/08/30 05:11:21;;;;;;;7.30;6.60;;;17.00;99.90;;;;;;5098572;28;20167;-76
2022/08/30 05:13:48;;;;;;;34.23;10.57;;;17.00;99.90;;;;;;5098675;28;20178;-78
2022/08/30 05:16:16;;;;;;;8.60;7.63;;;17.00;99.90;;;;;;5098637;28;20211;-79
2022/08/30 05:18:46;;;;;;;10.23;8.57;;;17.00;99.90;;;;;;5098821;28;20188;-78
2022/08/30 05:21:25;;;;;;;11.27;9.53;;;16.90;99.90;;;;;;5098436;28;20186;-75
2022/08/30 05:23:53;;;;;;;11.17;8.33;;;17.00;99.90;;;;;;5098237;28;20193;-79
2022/08/30 05:26:22;;;;;;;14.17;10.67;;;16.90;99.90;;;;;;5098418;28;20296;-78
2022/08/30 05:28:48;;;;;;;15.17;10.10;;;16.90;99.90;;;;;;5098259;28;20179;-78
2022/08/30 05:31:21;;;;;;;13.37;8.47;;;16.90;99.90;;;;;;5097370;28;20278;-78
2022/08/30 05:33:48;;;;;;;12.93;8.67;;;16.90;99.90;;;;;;5098389;28;20167;-78
2022/08/30 05:36:16;;;;;;;11.77;8.40;;;16.90;99.90;;;;;;5098170;28;20267;-78
2022/08/30 05:38:42;;;;;;;13.97;9.30;;;16.90;99.90;;;;;;5098128;28;20174;-81
2022/08/30 05:41:08;;;;;;;11.83;8.33;;;16.90;99.90;;;;;;5097079;28;20171;-79
2022/08/30 05:43:35;;;;;;;13.83;8.77;;;16.90;99.90;;;;;;5098237;28;20181;-78
2022/08/30 05:46:07;;;;;;;13.53;8.50;;;16.90;99.90;;;;;;5098030;28;20171;-76
2022/08/30 05:48:33;;;;;;;13.37;9.13;;;17.00;99.90;;;;;;5098117;28;20177;-77
2022/08/30 05:51:05;;;;;;;9.43;7.20;;;17.10;99.90;;;;;;5097386;28;20202;-78
2022/08/30 05:53:31;;;;;;;13.43;8.30;;;17.10;99.90;;;;;;5097798;28;20170;-78
2022/08/30 05:55:57;;;;;;;12.97;9.03;;;17.20;99.90;;;;;;5097987;28;20181;-78
2022/08/30 05:58:23;;;;;;;16.57;10.40;;;17.20;99.90;;;;;;5097795;28;20197;-77
2022/08/30 06:00:48;;;;;;;12.30;8.87;;;17.30;99.90;;;;;;5097765;28;20210;-76
2022/08/30 06:03:14;;;;;;;9.37;7.93;;;17.30;99.90;;;;;;5097951;28;20442;-78
2022/08/30 06:05:40;;;;;;;15.23;9.07;;;17.30;99.90;;;;;;5097505;28;20174;-77
2022/08/30 06:08:06;;;;;;;9.90;8.20;;;17.40;99.90;;;;;;5098003;28;20231;-76
2022/08/30 06:10:31;;;;;;;8.97;8.10;;;17.50;99.90;;;;;;5097510;28;20203;-78
2022/08/30 06:12:57;;;;;;;13.43;8.13;;;17.50;99.90;;;;;;5097751;28;20169;-76
2022/08/30 06:15:23;;;;;;;15.23;9.53;;;17.60;99.90;;;;;;5097540;28;20200;-73
2022/08/30 06:17:49;;;;;;;17.27;9.90;;;17.70;99.90;;;;;;5097616;28;20240;-73
2022/08/30 06:20:17;;;;;;;9.47;7.97;;;17.70;99.90;;;;;;5097298;28;20171;-73
2022/08/30 06:22:43;;;;;;;10.03;9.13;;;17.80;99.90;;;;;;5097252;28;20252;-72
2022/08/30 06:25:09;;;;;;;11.30;8.67;;;17.80;99.90;;;;;;5097119;28;20221;-72
2022/08/30 06:27:35;;;;;;;9.47;8.53;;;17.90;99.90;;;;;;5097085;28;20175;-73
2022/08/30 06:30:02;;;;;;;10.47;8.23;;;17.90;99.90;;;;;;5096992;28;20205;-72
2022/08/30 06:32:27;;;;;;;10.53;8.70;;;17.90;99.90;;;;;;5097121;28;20197;-72
2022/08/30 06:34:53;;;;;;;11.43;8.80;;;17.90;99.90;;;;;;5096690;28;20570;-72
2022/08/30 06:37:19;;;;;;;12.23;8.70;;;18.00;99.90;;;;;;5097061;28;20631;-72
2022/08/30 06:39:45;;;;;;;11.93;8.27;;;18.10;99.90;;;;;;5096119;28;20210;-70
2022/08/30 06:42:10;;;;;;;9.63;8.33;;;18.10;99.90;;;;;;5095772;28;20182;-71
2022/08/30 06:44:36;;;;;;;12.00;9.60;;;18.20;99.90;;;;;;5096810;28;20174;-70
2022/08/30 06:47:02;;;;;;;13.53;9.00;;;18.30;99.90;;;;;;5096847;28;20171;-70
2022/08/30 06:49:28;;;;;;;9.87;8.90;;;18.30;99.90;;;;;;5096245;28;20199;-71
2022/08/30 06:51:54;;;;;;;8.27;7.53;;;18.30;99.90;;;;;;5096716;28;20517;-73
2022/08/30 06:54:19;;;;;;;9.50;8.67;;;18.40;99.90;;;;;;5096801;28;20175;-70
2022/08/30 06:56:45;;;;;;;10.87;8.20;;;18.50;99.90;;;;;;5095441;28;20236;-71
2022/08/30 06:59:11;;;;;;;10.33;9.27;;;18.40;99.90;;;;;;5096434;28;20609;-73
2022/08/30 07:01:37;;;;;;;10.17;7.87;;;18.40;99.90;;;;;;5096403;28;20269;-71
2022/08/30 07:04:03;;;;;;;12.23;8.67;;;18.50;99.90;;;;;;5094630;28;20227;-76
2022/08/30 07:06:31;;;;;;;10.23;7.50;;;18.50;99.90;;;;;;5096340;28;20254;-75
2022/08/30 07:08:56;;;;;;;10.50;7.73;;;18.50;99.90;;;;;;5096414;28;20637;-75
2022/08/30 07:11:34;;;;;;;9.47;7.73;;;18.60;99.90;;;;;;5095159;28;20214;-72
2022/08/30 07:14:01;;;;;;;8.57;7.47;;;18.60;99.90;;;;;;5096382;28;20249;-73
2022/08/30 07:16:27;;;;;;;10.43;7.80;;;18.60;99.90;;;;;;5096164;28;20262;-74
2022/08/30 07:18:54;;;;;;;14.57;8.13;;;18.60;99.90;;;;;;5094864;28;20175;-74
2022/08/30 07:21:42;;;;;;;11.67;9.10;;;18.70;99.90;;;;;;5096379;28;20182;-72
2022/08/30 07:24:09;;;;;;;9.47;6.93;;;18.60;99.90;;;;;;5096274;28;20185;-70
2022/08/30 07:26:37;;;;;;;9.67;8.60;;;18.90;99.90;;;;;;5096052;28;20202;-70
2022/08/30 07:29:04;;;;;;;8.50;7.43;;;18.90;99.90;;;;;;5096166;28;20253;-70
2022/08/30 07:31:32;;;;;;;7.30;6.60;;;19.00;99.90;;;;;;5094639;28;20175;-73
2022/08/30 07:33:57;;;;;;;10.07;9.03;;;18.90;99.90;;;;;;5096095;28;20254;-72
2022/08/30 07:36:24;;;;;;;8.73;7.87;;;19.10;99.90;;;;;;5096013;28;20525;-72
2022/08/30 07:38:51;;;;;;;13.47;7.97;;;19.10;99.90;;;;;;5095984;28;20177;-70
2022/08/30 07:41:26;;;;;;;8.93;7.10;;;19.20;99.90;;;;;;5096034;28;20171;-71
2022/08/30 07:43:53;;;;;;;8.37;7.57;;;19.20;99.90;;;;;;5096056;28;20254;-72
2022/08/30 07:46:20;;;;;;;9.77;7.07;;;19.10;99.90;;;;;;5095667;28;20209;-74
2022/08/30 07:48:46;;;;;;;8.83;7.40;;;19.40;99.90;;;;;;5094474;28;20170;-73
2022/08/30 07:51:17;;;;;;;11.13;7.47;;;19.50;99.90;;;;;;5095833;28;20652;-70
2022/08/30 07:53:43;;;;;;;10.87;7.40;;;19.60;99.90;;;;;;5095789;28;20167;-71
2022/08/30 07:56:09;;;;;;;9.93;7.50;;;19.70;99.90;;;;;;5095947;28;20231;-71
2022/08/30 07:58:36;;;;;;;11.67;6.23;;;19.90;99.90;;;;;;5095644;28;20159;-72
2022/08/30 08:01:03;;;;;;;10.20;6.83;;;20.00;99.90;;;;;;5095597;28;20273;-70
2022/08/30 08:03:29;;;;;;;7.90;6.03;;;20.20;99.90;;;;;;5095605;28;20177;-71
2022/08/30 08:05:56;;;;;;;8.83;6.57;;;20.30;99.90;;;;;;5094797;28;20170;-72
2022/08/30 08:08:22;;;;;;;6.37;5.67;;;20.40;99.90;;;;;;5094588;28;20174;-71
2022/08/30 08:10:48;;;;;;;8.97;5.93;;;20.50;99.90;;;;;;5095628;28;20190;-73
2022/08/30 08:13:14;;;;;;;9.97;6.23;;;20.50;99.90;;;;;;5095689;28;20167;-71
2022/08/30 08:15:40;;;;;;;6.03;5.40;;;20.30;99.90;;;;;;5095636;28;20167;-71
2022/08/30 08:18:06;;;;;;;9.90;6.73;;;20.40;99.90;;;;;;5099641;28;20471;-71
2022/08/30 08:20:33;;;;;;;5.27;4.77;;;20.50;99.90;;;;;;5099684;28;20167;-72
2022/08/30 08:22:59;;;;;;;6.67;5.07;;;20.50;99.90;;;;;;5099485;28;20646;-72
2022/08/30 08:25:25;;;;;;;9.27;6.57;;;20.60;99.90;;;;;;5099462;28;20178;-72
2022/08/30 08:27:51;;;;;;;6.43;5.80;;;20.60;99.90;;;;;;5099481;28;20198;-71
2022/08/30 08:30:18;;;;;;;8.07;4.97;;;20.80;99.90;;;;;;5098115;28;20523;-71
2022/08/30 08:32:47;;;;;;;5.23;4.73;;;20.80;99.90;;;;;;5099434;28;20166;-74
2022/08/30 08:35:14;;;;;;;4.90;4.47;;;20.80;99.90;;;;;;5099441;28;20174;-70
2022/08/30 08:37:40;;;;;;;5.87;4.57;;;20.90;99.90;;;;;;5099267;28;20166;-75
2022/08/30 08:40:07;;;;;;;4.43;4.03;;;21.10;99.90;;;;;;5099524;28;20181;-73
2022/08/30 08:42:48;;;;;;;10.33;4.60;;;21.20;99.90;;;;;;5099388;28;20163;-72
2022/08/30 08:45:25;;;;;;;9.00;5.73;;;21.20;99.90;;;;;;5099177;28;20163;-71
2022/08/30 08:47:55;;;;;;;6.37;4.93;;;21.20;99.90;;;;;;5099037;28;20175;-77
2022/08/30 08:50:21;;;;;;;6.97;5.10;;;21.20;99.90;;;;;;5097914;28;20190;-76
2022/08/30 08:55:53;;;;;;;5.97;4.80;;;21.30;99.90;;;;;;5099292;28;20224;-73
2022/08/30 08:58:23;;;;;;;7.40;4.73;;;21.20;99.90;;;;;;5098478;28;20171;-71
2022/08/30 09:00:50;;;;;;;7.93;4.87;;;21.20;99.90;;;;;;5098689;28;20202;-71
2022/08/30 09:03:19;;;;;;;8.67;5.03;;;21.00;99.90;;;;;;5098789;28;20207;-73
2022/08/30 09:05:46;;;;;;;5.13;4.73;;;20.60;99.90;;;;;;5098812;28;20163;-71
2022/08/30 09:08:14;;;;;;;8.50;4.30;;;20.30;99.90;;;;;;5098651;28;20167;-70
2022/08/30 09:10:55;;;;;;;8.13;4.37;;;19.90;99.90;;;;;;5098573;28;20186;-72
2022/08/30 09:13:23;;;;;;;8.23;4.77;;;19.20;99.90;;;;;;5098247;28;20194;-69
2022/08/30 09:15:51;;;;;;;10.60;4.50;;;18.40;99.90;;;;;;5098696;28;20166;-71
2022/08/30 09:18:17;;;;;;;8.70;4.70;;;22.00;99.90;;;;;;5098652;28;20174;-71
2022/08/30 09:20:47;;;;;;;5.43;5.00;;;22.10;99.90;;;;;;5098486;28;20166;-70
2022/08/30 09:23:19;;;;;;;6.67;4.53;;;22.20;99.90;;;;;;5098656;28;20170;-70
2022/08/30 09:25:52;;;;;;;7.47;4.63;;;22.20;99.90;;;;;;5098101;28;20174;-70
2022/08/30 09:28:53;;;;;;;8.17;5.03;;;22.10;99.90;;;;;;5097455;28;20257;-71
2022/08/30 09:31:24;;;;;;;4.93;3.80;;;21.90;99.90;;;;;;5076019;28;20611;-70
2022/08/30 09:34:04;;;;;;;7.43;3.97;;;22.60;99.90;;;;;;5089959;28;20228;-70
2022/08/30 09:36:50;;;;;;;8.77;5.27;;;22.60;99.90;;;;;;5098248;28;20197;-70
2022/08/30 09:39:29;;;;;;;4.50;4.03;;;22.60;99.90;;;;;;5097990;28;20202;-71
2022/08/30 09:42:17;;;;;;;9.33;4.53;;;22.40;99.90;;;;;;5097807;28;20167;-71
2022/08/30 09:44:43;;;;;;;5.17;4.77;;;22.10;99.90;;;;;;5097910;28;20247;-73
2022/08/30 09:47:23;;;;;;;12.47;4.30;;;22.70;99.90;;;;;;5097851;28;20253;-70
2022/08/30 09:49:49;;;;;;;8.03;4.27;;;22.90;99.90;;;;;;5097562;28;20190;-71
2022/08/30 09:52:52;;;;;;;8.67;4.03;;;23.00;99.90;;;;;;5096750;28;20163;-70
2022/08/30 09:55:43;;;;;;;4.63;3.53;;;23.00;99.90;;;;;;5097594;28;20163;-70
2022/08/30 09:58:28;;;;;;;3.50;3.23;;;22.90;99.90;;;;;;5097415;28;20170;-72
2022/08/30 10:01:11;;;;;;;4.47;4.07;;;22.30;99.90;;;;;;5097447;28;20186;-72
2022/08/30 10:03:59;;;;;;;5.87;3.50;;;23.60;99.90;;;;;;5097772;28;20177;-73
2022/08/30 10:06:39;;;;;;;6.83;4.37;;;23.80;99.90;;;;;;5097476;28;20287;-74
2022/08/30 10:09:36;;;;;;;10.07;4.67;;;23.80;99.90;;;;;;5097588;28;20177;-70
2022/08/30 10:12:07;;;;;;;7.03;4.43;;;23.70;99.90;;;;;;5097290;28;20200;-73
2022/08/30 10:14:44;;;;;;;6.10;4.93;;;23.70;99.90;;;;;;5097520;28;20205;-71
2022/08/30 10:17:33;;;;;;;7.37;3.50;;;23.80;99.90;;;;;;5097371;28;20166;-70
2022/08/30 10:20:11;;;;;;;5.87;4.10;;;23.80;99.90;;;;;;5097302;28;20533;-70
2022/08/30 10:22:42;;;;;;;6.10;4.00;;;23.70;99.90;;;;;;5097463;28;20155;-71
2022/08/30 10:25:35;;;;;;;3.30;3.10;;;20.90;99.90;;;;;;5097124;28;20163;-73
2022/08/30 10:28:09;;;;;;;6.53;3.47;;;24.50;99.90;;;;;;5095807;28;20474;-70
2022/08/30 10:30:39;;;;;;;9.40;4.07;;;24.60;99.90;;;;;;5095959;28;20248;-71
2022/08/30 10:33:10;;;;;;;6.90;3.67;;;24.20;99.90;;;;;;5097093;28;20495;-72
2022/08/30 10:35:42;;;;;;;5.53;4.00;;;23.50;99.90;;;;;;5097027;28;20581;-70
2022/08/30 10:38:38;;;;;;;5.83;3.57;;;-40.00;71.20;;;;;;5096603;28;20554;-71
2022/08/30 10:41:41;;;;;;;5.93;3.17;;;-4.30;91.50;;;;;;5096718;28;20163;-71
2022/08/30 10:44:25;;;;;;;5.17;3.80;;;24.80;99.90;;;;;;5096959;28;20166;-70
2022/08/30 10:47:31;;;;;;;10.57;5.30;;;24.80;99.90;;;;;;5096724;28;20654;-69
2022/08/30 10:50:14;;;;;;;6.07;3.63;;;24.80;99.50;;;;;;5096545;28;20201;-70
2022/08/30 10:52:54;;;;;;;6.07;4.27;;;24.30;99.60;;;;;;5096757;28;20174;-70
2022/08/30 10:55:44;;;;;;;4.97;3.37;;;22.90;98.50;;;;;;5096499;28;20597;-71
2022/08/30 10:58:11;;;;;;;3.77;3.40;;;23.70;98.60;;;;;;5096518;28;20220;-71
2022/08/30 11:01:01;;;;;;;4.67;3.07;;;24.70;98.20;;;;;;5095454;28;20601;-73
2022/08/30 11:04:16;;;;;;;4.70;2.43;;;25.40;98.10;;;;;;5096669;28;20163;-70
2022/08/30 11:07:04;;;;;;;5.40;3.13;;;24.00;96.80;;;;;;5091879;28;20178;-71
2022/08/30 11:09:42;;;;;;;4.10;3.03;;;26.50;96.60;;;;;;5106154;28;20182;-73
2022/08/30 11:12:45;;;;;;;3.63;3.33;;;26.60;97.30;;;;;;5107056;28;20155;-72
2022/08/30 11:15:34;;;;;;;7.30;3.53;;;26.70;96.70;;;;;;5105513;28;20226;-71
2022/08/30 11:18:08;;;;;;;4.33;3.03;;;26.60;96.20;;;;;;5096455;28;20496;-70
2022/08/30 11:20:39;;;;;;;8.63;3.83;;;26.50;96.70;;;;;;5096584;28;20177;-72
2022/08/30 11:23:17;;;;;;;8.03;3.67;;;26.20;96.10;;;;;;5096179;28;20197;-71
2022/08/30 11:25:54;;;;;;;14.43;3.70;;;-40.00;60.70;;;;;;5095181;28;20477;-72
2022/08/30 11:28:34;;;;;;;7.67;2.87;;;-40.00;59.20;;;;;;5095976;28;20193;-70
2022/08/30 11:31:14;;;;;;;8.17;3.20;;;-40.00;57.70;;;;;;5096042;28;20237;-71
2022/08/30 11:33:46;;;;;;;6.73;2.97;;;-40.00;58.50;;;;;;5096294;28;20186;-71
2022/08/30 11:36:37;;;;;;;5.03;2.60;;;-40.00;57.60;;;;;;5096151;28;20163;-70
2022/08/30 11:39:43;;;;;;;9.60;3.77;;;-40.00;58.80;;;;;;5085018;28;20320;-70
2022/08/30 11:42:31;;;;;;;3.07;2.83;;;-40.00;56.80;;;;;;5089057;28;20517;-70
2022/08/30 11:45:22;;;;;;;7.03;3.50;;;-40.00;56.00;;;;;;5095634;28;20475;-70
2022/08/30 11:47:57;;;;;;;4.97;2.90;;;-40.00;53.50;;;;;;5095779;28;20285;-71
2022/08/30 11:50:26;;;;;;;6.00;3.23;;;-40.00;52.80;;;;;;5095549;28;20209;-70
2022/08/30 11:53:12;;;;;;;5.73;3.43;;;-40.00;51.10;;;;;;5095527;28;20250;-72
2022/08/30 11:55:46;;;;;;;5.63;2.28;;;-40.00;48.20;;;;;;5095862;28;20219;-70
2022/08/30 11:58:25;;;;;;;3.05;2.60;;;-40.00;48.40;;;;;;5095495;28;20197;-72
2022/08/30 12:01:17;;;;;;;5.30;2.65;;;-40.00;46.40;;;;;;5095756;28;20194;-70
2022/08/30 12:03:43;;;;;;;3.90;2.78;;;-40.00;45.70;;;;;;5095632;28;20166;-70
2022/08/30 12:06:30;;;;;;;4.47;2.88;;;-40.00;47.40;;;;;;5095631;28;20167;-71
2022/08/30 12:08:55;;;;;;;6.22;3.28;;;-40.00;46.40;;;;;;5095272;28;20170;-70
2022/08/30 12:11:21;;;;;;;9.13;2.50;;;-40.00;45.50;;;;;;5095622;28;20205;-71
2022/08/30 12:13:47;;;;;;;4.60;2.50;;;-40.00;46.20;;;;;;5095738;28;20170;-71
2022/08/30 12:16:20;;;;;;;4.85;3.35;;;-40.00;46.50;;;;;;5095747;28;20162;-70
2022/08/30 12:18:48;;;;;;;4.28;2.88;;;-40.00;43.90;;;;;;5094427;28;20191;-71
2022/08/30 12:21:25;;;;;;;8.48;2.75;;;-40.00;43.50;;;;;;5094701;28;20163;-70
2022/08/30 12:23:50;;;;;;;4.68;3.50;;;30.90;84.10;;;;;;5095450;28;20170;-70
2022/08/30 12:26:25;;;;;;;9.13;3.15;;;30.70;82.70;;;;;;5095607;28;20593;-71
2022/08/30 12:29:04;;;;;;;5.25;2.35;;;30.80;84.20;;;;;;5095256;28;20186;-70
2022/08/30 12:31:30;;;;;;;3.63;2.92;;;31.30;82.90;;;;;;5095426;28;20289;-71
2022/08/30 12:33:59;;;;;;;6.53;3.17;;;31.50;80.80;;;;;;5095512;28;20220;-71
2022/08/30 12:36:39;;;;;;;8.40;2.83;;;31.00;81.70;;;;;;5095274;28;20159;-70
2022/08/30 12:39:12;;;;;;;10.43;3.88;;;32.70;79.90;;;;;;5095372;28;20165;-74
2022/08/30 12:41:38;;;;;;;5.45;3.30;;;33.00;77.60;;;;;;5095406;28;20163;-71
2022/08/30 12:44:10;;;;;;;5.95;3.22;;;32.70;78.40;;;;;;5094313;28;20176;-71
2022/08/30 12:46:36;;;;;;;4.13;3.42;;;31.60;76.10;;;;;;5094408;28;20186;-71
2022/08/30 12:49:03;;;;;;;8.63;3.00;;;31.70;77.30;;;;;;5095245;28;21942;-74
2022/08/30 12:51:41;;;;;;;7.07;3.10;;;31.80;77.10;;;;;;5095144;28;20202;-77
2022/08/30 12:54:29;;;;;;;11.82;5.63;;;32.90;76.00;;;;;;5094058;28;20505;-73
2022/08/30 12:57:03;;;;;;;3.63;3.33;;;33.00;76.40;;;;;;5095209;28;20217;-71
2022/08/30 12:59:51;;;;;;;4.63;4.00;;;33.00;77.40;;;;;;5095112;28;20174;-74
2022/08/30 13:02:21;;;;;;;3.85;2.45;;;32.50;73.70;;;;;;5095415;28;20171;-74
2022/08/30 13:04:49;;;;;;;3.13;2.80;;;31.60;72.30;;;;;;5098733;28;20162;-75